sensor_id;sensor_type;location;lat;lon;timestamp;temperature;humidity
2124;DHT22;1068;52.460;13.528;2023-02-28T00:02:24;3.30;99.90
2124;DHT22;1068;52.460;13.528;2023-02-28T00:04:51;3.20;99.90
2124;DHT22;1068;52.460;13.528;2023-02-28T00:07:27;3.30;99.90
2124;DHT22;1068;52.460;13.528;2023-02-28T00:09:54;3.10;99.90
2124;DHT22;1068;52.460;13.528;2023-02-28T00:12:20;3.20;99.90
2124;DHT22;1068;52.460;13.528;2023-02-28T00:14:47;3.30;99.90
2124;DHT22;1068;52.460;13.528;2023-02-28T00:17:13;3.20;99.90
2124;DHT22;1068;52.460;13.528;2023-02-28T00:19:40;3.10;99.90
2124;DHT22;1068;52.460;13.528;2023-02-28T00:22:06;3.10;99.90
2124;DHT22;1068;52.460;13.528;2023-02-28T00:24:34;3.30;99.90
2124;DHT22;1068;52.460;13.528;2023-02-28T00:27:01;3.40;99.90
2124;DHT22;1068;52.460;13.528;2023-02-28T00:29:27;3.50;99.90
2124;DHT22;1068;52.460;13.528;2023-02-28T00:31:54;3.30;99.90
2124;DHT22;1068;52.460;13.528;2023-02-28T00:34:20;3.30;99.90
2124;DHT22;1068;52.460;13.528;2023-02-28T00:36:47;3.30;99.90
2124;DHT22;1068;52.460;13.528;2023-02-28T00:39:15;3.40;99.90
2124;DHT22;1068;52.460;13.528;2023-02-28T00:41:43;3.40;99.90
2124;DHT22;1068;52.460;13.528;2023-02-28T00:44:09;3.50;99.90
2124;DHT22;1068;52.460;13.528;2023-02-28T00:46:36;3.40;99.90
2124;DHT22;1068;52.460;13.528;2023-02-28T00:49:02;3.40;99.90
2124;DHT22;1068;52.460;13.528;2023-02-28T00:51:29;3.40;99.90
2124;DHT22;1068;52.460;13.528;2023-02-28T00:53:55;3.00;99.90
2124;DHT22;1068;52.460;13.528;2023-02-28T00:56:22;3.00;99.90
2124;DHT22;1068;52.460;13.528;2023-02-28T00:58:50;3.10;99.90
2124;DHT22;1068;52.460;13.528;2023-02-28T01:01:16;3.10;99.90
2124;DHT22;1068;52.460;13.528;2023-02-28T01:03:43;2.90;99.90
2124;DHT22;1068;52.460;13.528;2023-02-28T01:06:09;2.80;99.90
2124;DHT22;1068;52.460;13.528;2023-02-28T01:08:36;3.00;99.90
2124;DHT22;1068;52.460;13.528;2023-02-28T01:11:08;3.00;99.90
2124;DHT22;1068;52.460;13.528;2023-02-28T01:13:35;2.90;99.90
2124;DHT22;1068;52.460;13.528;2023-02-28T01:16:03;3.00;99.90
2124;DHT22;1068;52.460;13.528;2023-02-28T01:18:29;2.90;99.90
2124;DHT22;1068;52.460;13.528;2023-02-28T01:20:56;2.90;99.90
2124;DHT22;1068;52.460;13.528;2023-02-28T01:23:24;2.90;99.90
2124;DHT22;1068;52.460;13.528;2023-02-28T01:25:50;2.90;99.90
2124;DHT22;1068;52.460;13.528;2023-02-28T01:28:17;3.00;99.90
2124;DHT22;1068;52.460;13.528;2023-02-28T01:30:47;2.90;99.90
2124;DHT22;1068;52.460;13.528;2023-02-28T01:33:15;2.80;99.90
2124;DHT22;1068;52.460;13.528;2023-02-28T01:35:42;2.90;99.90
2124;DHT22;1068;52.460;13.528;2023-02-28T01:38:08;2.90;99.90
2124;DHT22;1068;52.460;13.528;2023-02-28T01:40:35;3.00;99.90
2124;DHT22;1068;52.460;13.528;2023-02-28T01:43:01;2.90;99.90
2124;DHT22;1068;52.460;13.528;2023-02-28T01:45:29;2.80;99.90
2124;DHT22;1068;52.460;13.528;2023-02-28T01:47:59;2.90;99.90
2124;DHT22;1068;52.460;13.528;2023-02-28T01:50:32;3.00;99.90
2124;DHT22;1068;52.460;13.528;2023-02-28T01:53:02;3.00;99.90
2124;DHT22;1068;52.460;13.528;2023-02-28T01:55:31;2.80;99.90
2124;DHT22;1068;52.460;13.528;2023-02-28T01:58:00;2.90;99.90
2124;DHT22;1068;52.460;13.528;2023-02-28T02:00:29;2.90;99.90
2124;DHT22;1068;52.460;13.528;2023-02-28T02:02:58;2.90;99.90
2124;DHT22;1068;52.460;13.528;2023-02-28T02:05:29;2.80;99.90
2124;DHT22;1068;52.460;13.528;2023-02-28T02:08:00;2.60;99.90
2124;DHT22;1068;52.460;13.528;2023-02-28T02:10:32;2.50;99.90
2124;DHT22;1068;52.460;13.528;2023-02-28T02:13:19;2.60;99.90
2124;DHT22;1068;52.460;13.528;2023-02-28T02:15:55;2.50;99.90
2124;DHT22;1068;52.460;13.528;2023-02-28T02:18:32;2.60;99.90
2124;DHT22;1068;52.460;13.528;2023-02-28T02:24:50;2.50;99.90
2124;DHT22;1068;52.460;13.528;2023-02-28T02:27:23;2.50;99.90
2124;DHT22;1068;52.460;13.528;2023-02-28T02:30:15;2.40;99.90
2124;DHT22;1068;52.460;13.528;2023-02-28T02:32:55;2.20;99.90
2124;DHT22;1068;52.460;13.528;2023-02-28T02:35:31;2.10;99.90
2124;DHT22;1068;52.460;13.528;2023-02-28T02:38:05;2.10;99.90
2124;DHT22;1068;52.460;13.528;2023-02-28T02:40:37;2.10;99.90
2124;DHT22;1068;52.460;13.528;2023-02-28T02:43:08;2.00;99.90
2124;DHT22;1068;52.460;13.528;2023-02-28T02:45:43;2.00;99.90
2124;DHT22;1068;52.460;13.528;2023-02-28T02:48:13;1.80;99.90
2124;DHT22;1068;52.460;13.528;2023-02-28T02:50:45;1.80;99.90
2124;DHT22;1068;52.460;13.528;2023-02-28T02:53:14;1.70;99.90
2124;DHT22;1068;52.460;13.528;2023-02-28T02:55:44;1.80;99.90
2124;DHT22;1068;52.460;13.528;2023-02-28T02:58:15;1.80;99.90
2124;DHT22;1068;52.460;13.528;2023-02-28T03:00:45;1.60;99.90
2124;DHT22;1068;52.460;13.528;2023-02-28T03:03:14;1.50;99.90
2124;DHT22;1068;52.460;13.528;2023-02-28T03:05:46;1.40;99.90
2124;DHT22;1068;52.460;13.528;2023-02-28T03:08:12;1.40;99.90
2124;DHT22;1068;52.460;13.528;2023-02-28T03:10:41;1.50;99.90
2124;DHT22;1068;52.460;13.528;2023-02-28T03:13:32;1.40;99.90
2124;DHT22;1068;52.460;13.528;2023-02-28T03:18:59;1.40;99.90
2124;DHT22;1068;52.460;13.528;2023-02-28T03:21:34;1.40;99.90
2124;DHT22;1068;52.460;13.528;2023-02-28T03:24:04;1.40;99.90
2124;DHT22;1068;52.460;13.528;2023-02-28T03:26:34;1.40;99.90
2124;DHT22;1068;52.460;13.528;2023-02-28T03:29:05;1.30;99.90
2124;DHT22;1068;52.460;13.528;2023-02-28T03:31:38;1.20;99.90
2124;DHT22;1068;52.460;13.528;2023-02-28T03:34:08;1.20;99.90
2124;DHT22;1068;52.460;13.528;2023-02-28T03:36:41;1.20;99.90
2124;DHT22;1068;52.460;13.528;2023-02-28T03:39:14;1.20;99.90
2124;DHT22;1068;52.460;13.528;2023-02-28T03:41:43;1.20;99.90
2124;DHT22;1068;52.460;13.528;2023-02-28T03:44:17;1.20;99.90
2124;DHT22;1068;52.460;13.528;2023-02-28T03:46:49;1.20;99.90
2124;DHT22;1068;52.460;13.528;2023-02-28T03:49:20;1.00;99.90
2124;DHT22;1068;52.460;13.528;2023-02-28T03:51:50;1.00;99.90
2124;DHT22;1068;52.460;13.528;2023-02-28T03:54:22;1.10;99.90
2124;DHT22;1068;52.460;13.528;2023-02-28T03:56:53;1.00;99.90
2124;DHT22;1068;52.460;13.528;2023-02-28T03:59:25;1.10;99.90
2124;DHT22;1068;52.460;13.528;2023-02-28T04:01:54;1.10;99.90
2124;DHT22;1068;52.460;13.528;2023-02-28T04:04:23;1.10;99.90
2124;DHT22;1068;52.460;13.528;2023-02-28T04:06:52;1.00;99.90
2124;DHT22;1068;52.460;13.528;2023-02-28T04:09:19;1.00;99.90
2124;DHT22;1068;52.460;13.528;2023-02-28T04:11:48;1.00;99.90
2124;DHT22;1068;52.460;13.528;2023-02-28T04:14:16;0.90;99.90
2124;DHT22;1068;52.460;13.528;2023-02-28T04:16:43;0.90;99.90
2124;DHT22;1068;52.460;13.528;2023-02-28T04:19:11;0.70;99.90
2124;DHT22;1068;52.460;13.528;2023-02-28T04:21:40;0.80;99.90
2124;DHT22;1068;52.460;13.528;2023-02-28T04:24:10;0.70;99.90
2124;DHT22;1068;52.460;13.528;2023-02-28T04:26:41;0.50;99.90
2124;DHT22;1068;52.460;13.528;2023-02-28T04:29:09;0.70;99.90
2124;DHT22;1068;52.460;13.528;2023-02-28T04:31:36;0.70;99.90
2124;DHT22;1068;52.460;13.528;2023-02-28T04:34:02;0.60;99.90
2124;DHT22;1068;52.460;13.528;2023-02-28T04:36:29;0.50;99.90
2124;DHT22;1068;52.460;13.528;2023-02-28T04:38:56;0.50;99.90
2124;DHT22;1068;52.460;13.528;2023-02-28T04:41:24;0.50;99.90
2124;DHT22;1068;52.460;13.528;2023-02-28T04:43:51;0.40;99.90
2124;DHT22;1068;52.460;13.528;2023-02-28T04:46:17;0.50;99.90
2124;DHT22;1068;52.460;13.528;2023-02-28T04:48:44;0.60;99.90
2124;DHT22;1068;52.460;13.528;2023-02-28T04:51:12;0.50;99.90
2124;DHT22;1068;52.460;13.528;2023-02-28T04:53:40;0.50;99.90
2124;DHT22;1068;52.460;13.528;2023-02-28T04:56:09;0.60;99.90
2124;DHT22;1068;52.460;13.528;2023-02-28T04:58:38;0.50;99.90
2124;DHT22;1068;52.460;13.528;2023-02-28T05:01:06;0.50;99.90
2124;DHT22;1068;52.460;13.528;2023-02-28T05:03:38;0.40;99.90
2124;DHT22;1068;52.460;13.528;2023-02-28T05:06:06;0.30;99.90
2124;DHT22;1068;52.460;13.528;2023-02-28T05:08:32;0.20;99.90
2124;DHT22;1068;52.460;13.528;2023-02-28T05:10:59;0.30;99.90
2124;DHT22;1068;52.460;13.528;2023-02-28T05:13:26;0.10;99.90
2124;DHT22;1068;52.460;13.528;2023-02-28T05:15:54;0.20;99.90
2124;DHT22;1068;52.460;13.528;2023-02-28T05:18:21;0.20;99.90
2124;DHT22;1068;52.460;13.528;2023-02-28T05:20:47;0.20;99.90
2124;DHT22;1068;52.460;13.528;2023-02-28T05:23:14;0.20;99.90
2124;DHT22;1068;52.460;13.528;2023-02-28T05:25:43;0.10;99.90
2124;DHT22;1068;52.460;13.528;2023-02-28T05:28:09;0.00;99.90
2124;DHT22;1068;52.460;13.528;2023-02-28T05:30:35;0.00;99.90
2124;DHT22;1068;52.460;13.528;2023-02-28T05:33:03;0.00;99.90
2124;DHT22;1068;52.460;13.528;2023-02-28T05:35:30;0.00;99.90
2124;DHT22;1068;52.460;13.528;2023-02-28T05:37:56;-0.10;99.90
2124;DHT22;1068;52.460;13.528;2023-02-28T05:40:23;-0.10;99.90
2124;DHT22;1068;52.460;13.528;2023-02-28T05:42:50;0.00;99.90
2124;DHT22;1068;52.460;13.528;2023-02-28T05:45:17;0.10;99.90
2124;DHT22;1068;52.460;13.528;2023-02-28T05:47:43;-0.10;99.90
2124;DHT22;1068;52.460;13.528;2023-02-28T05:50:11;0.00;99.90
2124;DHT22;1068;52.460;13.528;2023-02-28T05:52:38;-0.10;99.90
2124;DHT22;1068;52.460;13.528;2023-02-28T05:55:05;-0.10;99.90
2124;DHT22;1068;52.460;13.528;2023-02-28T05:57:32;-0.10;99.90
2124;DHT22;1068;52.460;13.528;2023-02-28T05:59:58;-0.20;99.90
2124;DHT22;1068;52.460;13.528;2023-02-28T06:02:25;-0.10;99.90
2124;DHT22;1068;52.460;13.528;2023-02-28T06:04:51;-0.10;99.90
2124;DHT22;1068;52.460;13.528;2023-02-28T06:07:19;-0.20;99.90
2124;DHT22;1068;52.460;13.528;2023-02-28T06:09:47;-0.20;99.90
2124;DHT22;1068;52.460;13.528;2023-02-28T06:12:14;-0.20;99.90
2124;DHT22;1068;52.460;13.528;2023-02-28T06:14:40;-0.30;99.90
2124;DHT22;1068;52.460;13.528;2023-02-28T06:17:08;-0.30;99.90
2124;DHT22;1068;52.460;13.528;2023-02-28T06:19:36;-0.30;99.90
2124;DHT22;1068;52.460;13.528;2023-02-28T06:22:04;-0.30;99.90
2124;DHT22;1068;52.460;13.528;2023-02-28T06:24:32;-0.30;99.90
2124;DHT22;1068;52.460;13.528;2023-02-28T06:26:58;-0.20;99.90
2124;DHT22;1068;52.460;13.528;2023-02-28T06:29:30;-0.10;99.90
2124;DHT22;1068;52.460;13.528;2023-02-28T06:31:56;-0.10;99.90
2124;DHT22;1068;52.460;13.528;2023-02-28T06:34:23;0.00;99.90
2124;DHT22;1068;52.460;13.528;2023-02-28T06:36:51;0.10;99.90
2124;DHT22;1068;52.460;13.528;2023-02-28T06:39:17;0.30;99.90
2124;DHT22;1068;52.460;13.528;2023-02-28T06:41:45;0.40;99.90
2124;DHT22;1068;52.460;13.528;2023-02-28T06:44:15;0.50;99.90
2124;DHT22;1068;52.460;13.528;2023-02-28T06:46:42;0.60;99.90
2124;DHT22;1068;52.460;13.528;2023-02-28T06:49:10;0.60;99.90
2124;DHT22;1068;52.460;13.528;2023-02-28T06:51:38;0.70;99.90
2124;DHT22;1068;52.460;13.528;2023-02-28T06:54:05;0.70;99.90
2124;DHT22;1068;52.460;13.528;2023-02-28T06:56:34;0.80;99.90
2124;DHT22;1068;52.460;13.528;2023-02-28T06:59:02;1.00;99.90
2124;DHT22;1068;52.460;13.528;2023-02-28T07:01:29;0.90;99.90
2124;DHT22;1068;52.460;13.528;2023-02-28T07:03:56;1.00;99.90
2124;DHT22;1068;52.460;13.528;2023-02-28T07:06:24;1.20;99.90
2124;DHT22;1068;52.460;13.528;2023-02-28T07:08:51;1.30;99.90
2124;DHT22;1068;52.460;13.528;2023-02-28T07:11:18;1.50;99.90
2124;DHT22;1068;52.460;13.528;2023-02-28T07:13:45;1.60;99.90
2124;DHT22;1068;52.460;13.528;2023-02-28T07:16:14;1.70;99.90
2124;DHT22;1068;52.460;13.528;2023-02-28T07:18:40;1.80;99.90
2124;DHT22;1068;52.460;13.528;2023-02-28T07:21:08;1.80;99.90
2124;DHT22;1068;52.460;13.528;2023-02-28T07:23:35;1.90;99.90
2124;DHT22;1068;52.460;13.528;2023-02-28T07:26:03;1.90;99.90
2124;DHT22;1068;52.460;13.528;2023-02-28T07:28:30;2.10;99.90
2124;DHT22;1068;52.460;13.528;2023-02-28T07:30:57;2.20;99.90
2124;DHT22;1068;52.460;13.528;2023-02-28T07:33:24;2.20;99.90
2124;DHT22;1068;52.460;13.528;2023-02-28T07:35:51;2.30;99.90
2124;DHT22;1068;52.460;13.528;2023-02-28T07:38:17;2.30;99.90
2124;DHT22;1068;52.460;13.528;2023-02-28T07:40:44;2.40;99.90
2124;DHT22;1068;52.460;13.528;2023-02-28T07:43:10;2.50;99.90
2124;DHT22;1068;52.460;13.528;2023-02-28T07:45:37;2.70;99.90
2124;DHT22;1068;52.460;13.528;2023-02-28T07:48:03;2.80;99.90
2124;DHT22;1068;52.460;13.528;2023-02-28T07:50:31;2.90;99.90
2124;DHT22;1068;52.460;13.528;2023-02-28T07:52:58;2.90;99.90
2124;DHT22;1068;52.460;13.528;2023-02-28T07:55:24;2.80;99.90
2124;DHT22;1068;52.460;13.528;2023-02-28T07:57:51;2.70;99.90
2124;DHT22;1068;52.460;13.528;2023-02-28T08:00:18;2.60;99.90
2124;DHT22;1068;52.460;13.528;2023-02-28T08:02:45;2.40;99.90
2124;DHT22;1068;52.460;13.528;2023-02-28T08:05:11;2.40;99.90
2124;DHT22;1068;52.460;13.528;2023-02-28T08:07:39;2.40;99.90
2124;DHT22;1068;52.460;13.528;2023-02-28T08:10:07;2.50;99.90
2124;DHT22;1068;52.460;13.528;2023-02-28T08:12:35;2.50;99.90
2124;DHT22;1068;52.460;13.528;2023-02-28T08:15:01;2.60;99.90
2124;DHT22;1068;52.460;13.528;2023-02-28T08:17:28;2.60;99.90
2124;DHT22;1068;52.460;13.528;2023-02-28T08:19:54;2.60;99.90
2124;DHT22;1068;52.460;13.528;2023-02-28T08:22:21;2.60;99.90
2124;DHT22;1068;52.460;13.528;2023-02-28T08:24:48;2.70;99.90
2124;DHT22;1068;52.460;13.528;2023-02-28T08:27:15;2.80;99.90
2124;DHT22;1068;52.460;13.528;2023-02-28T08:29:42;2.80;99.90
2124;DHT22;1068;52.460;13.528;2023-02-28T08:32:09;2.80;99.90
2124;DHT22;1068;52.460;13.528;2023-02-28T08:34:35;2.80;99.90
2124;DHT22;1068;52.460;13.528;2023-02-28T08:37:02;3.00;99.90
2124;DHT22;1068;52.460;13.528;2023-02-28T08:39:28;3.00;99.90
2124;DHT22;1068;52.460;13.528;2023-02-28T08:41:56;3.10;99.90
2124;DHT22;1068;52.460;13.528;2023-02-28T08:44:22;3.10;99.90
2124;DHT22;1068;52.460;13.528;2023-02-28T08:46:49;3.10;99.90
2124;DHT22;1068;52.460;13.528;2023-02-28T08:49:15;3.20;99.90
2124;DHT22;1068;52.460;13.528;2023-02-28T08:51:42;3.30;99.90
2124;DHT22;1068;52.460;13.528;2023-02-28T08:54:08;3.50;99.90
2124;DHT22;1068;52.460;13.528;2023-02-28T08:56:38;3.60;99.90
2124;DHT22;1068;52.460;13.528;2023-02-28T08:59:06;3.80;99.90
2124;DHT22;1068;52.460;13.528;2023-02-28T09:01:32;3.90;99.90
2124;DHT22;1068;52.460;13.528;2023-02-28T09:03:59;4.10;99.90
2124;DHT22;1068;52.460;13.528;2023-02-28T09:06:27;4.20;99.90
2124;DHT22;1068;52.460;13.528;2023-02-28T09:08:56;4.30;99.90
2124;DHT22;1068;52.460;13.528;2023-02-28T09:11:24;4.40;99.90
2124;DHT22;1068;52.460;13.528;2023-02-28T09:13:50;4.40;99.90
2124;DHT22;1068;52.460;13.528;2023-02-28T09:16:18;4.40;99.90
2124;DHT22;1068;52.460;13.528;2023-02-28T09:18:45;4.60;99.90
2124;DHT22;1068;52.460;13.528;2023-02-28T09:21:14;4.70;99.90
2124;DHT22;1068;52.460;13.528;2023-02-28T09:23:40;4.70;99.90
2124;DHT22;1068;52.460;13.528;2023-02-28T09:26:11;4.70;99.90
2124;DHT22;1068;52.460;13.528;2023-02-28T09:28:39;4.70;99.90
2124;DHT22;1068;52.460;13.528;2023-02-28T09:31:05;4.70;99.90
2124;DHT22;1068;52.460;13.528;2023-02-28T09:33:33;4.80;99.90
2124;DHT22;1068;52.460;13.528;2023-02-28T09:36:01;4.60;99.90
2124;DHT22;1068;52.460;13.528;2023-02-28T09:38:29;4.50;99.90
2124;DHT22;1068;52.460;13.528;2023-02-28T09:40:57;4.40;99.90
2124;DHT22;1068;52.460;13.528;2023-02-28T09:43:26;4.50;99.90
2124;DHT22;1068;52.460;13.528;2023-02-28T09:45:59;4.60;99.90
2124;DHT22;1068;52.460;13.528;2023-02-28T09:48:31;4.70;99.90
2124;DHT22;1068;52.460;13.528;2023-02-28T09:51:04;4.70;99.90
2124;DHT22;1068;52.460;13.528;2023-02-28T09:53:32;4.80;99.90
2124;DHT22;1068;52.460;13.528;2023-02-28T09:56:03;4.90;99.90
2124;DHT22;1068;52.460;13.528;2023-02-28T09:58:34;4.90;99.90
2124;DHT22;1068;52.460;13.528;2023-02-28T10:01:09;4.80;99.90
2124;DHT22;1068;52.460;13.528;2023-02-28T10:03:40;4.90;99.90
2124;DHT22;1068;52.460;13.528;2023-02-28T10:06:14;4.90;99.90
2124;DHT22;1068;52.460;13.528;2023-02-28T10:08:47;4.90;99.90
2124;DHT22;1068;52.460;13.528;2023-02-28T10:11:17;5.00;99.90
2124;DHT22;1068;52.460;13.528;2023-02-28T10:13:51;5.00;99.90
2124;DHT22;1068;52.460;13.528;2023-02-28T10:16:23;5.10;99.90
2124;DHT22;1068;52.460;13.528;2023-02-28T10:18:55;5.10;99.90
2124;DHT22;1068;52.460;13.528;2023-02-28T10:21:30;5.10;99.90
2124;DHT22;1068;52.460;13.528;2023-02-28T10:24:04;5.10;99.90
2124;DHT22;1068;52.460;13.528;2023-02-28T10:26:32;5.10;99.90
2124;DHT22;1068;52.460;13.528;2023-02-28T10:28:59;5.20;99.90
2124;DHT22;1068;52.460;13.528;2023-02-28T10:31:25;5.30;99.90
2124;DHT22;1068;52.460;13.528;2023-02-28T10:33:52;5.40;99.90
2124;DHT22;1068;52.460;13.528;2023-02-28T10:36:20;5.40;99.90
2124;DHT22;1068;52.460;13.528;2023-02-28T10:38:48;5.40;99.90
2124;DHT22;1068;52.460;13.528;2023-02-28T10:41:17;5.40;99.90
2124;DHT22;1068;52.460;13.528;2023-02-28T10:43:52;5.50;99.90
2124;DHT22;1068;52.460;13.528;2023-02-28T10:46:19;5.50;99.90
2124;DHT22;1068;52.460;13.528;2023-02-28T10:49:00;5.50;99.90
2124;DHT22;1068;52.460;13.528;2023-02-28T10:51:35;5.50;99.90
2124;DHT22;1068;52.460;13.528;2023-02-28T10:54:04;5.50;99.90
2124;DHT22;1068;52.460;13.528;2023-02-28T10:56:31;5.60;99.90
2124;DHT22;1068;52.460;13.528;2023-02-28T10:59:00;5.60;99.90
2124;DHT22;1068;52.460;13.528;2023-02-28T11:01:35;5.70;99.90
2124;DHT22;1068;52.460;13.528;2023-02-28T11:04:03;5.70;99.90
2124;DHT22;1068;52.460;13.528;2023-02-28T11:06:31;5.70;99.90
2124;DHT22;1068;52.460;13.528;2023-02-28T11:09:00;5.80;99.90
2124;DHT22;1068;52.460;13.528;2023-02-28T11:11:30;5.80;99.90
2124;DHT22;1068;52.460;13.528;2023-02-28T11:14:03;5.80;99.90
2124;DHT22;1068;52.460;13.528;2023-02-28T11:16:34;5.90;99.90
2124;DHT22;1068;52.460;13.528;2023-02-28T11:19:02;6.10;99.90
2124;DHT22;1068;52.460;13.528;2023-02-28T11:21:32;6.20;99.90
2124;DHT22;1068;52.460;13.528;2023-02-28T11:24:03;6.30;99.90
2124;DHT22;1068;52.460;13.528;2023-02-28T11:26:41;6.40;99.90
2124;DHT22;1068;52.460;13.528;2023-02-28T11:29:20;6.60;99.90
2124;DHT22;1068;52.460;13.528;2023-02-28T11:32:15;6.60;99.90
2124;DHT22;1068;52.460;13.528;2023-02-28T11:34:43;6.60;99.90
2124;DHT22;1068;52.460;13.528;2023-02-28T11:37:13;6.70;99.90
2124;DHT22;1068;52.460;13.528;2023-02-28T11:39:40;6.70;99.90
2124;DHT22;1068;52.460;13.528;2023-02-28T11:42:34;6.70;99.90
2124;DHT22;1068;52.460;13.528;2023-02-28T11:45:13;6.70;99.90
2124;DHT22;1068;52.460;13.528;2023-02-28T11:47:47;6.60;98.80
2124;DHT22;1068;52.460;13.528;2023-02-28T11:50:26;6.70;98.60
2124;DHT22;1068;52.460;13.528;2023-02-28T11:53:02;6.60;99.50
2124;DHT22;1068;52.460;13.528;2023-02-28T11:55:35;6.60;99.60
2124;DHT22;1068;52.460;13.528;2023-02-28T11:58:19;6.70;98.90
2124;DHT22;1068;52.460;13.528;2023-02-28T12:01:01;6.50;99.80
2124;DHT22;1068;52.460;13.528;2023-02-28T12:03:35;6.70;98.70
2124;DHT22;1068;52.460;13.528;2023-02-28T12:06:15;6.80;99.20
2124;DHT22;1068;52.460;13.528;2023-02-28T12:08:53;6.60;98.80
2124;DHT22;1068;52.460;13.528;2023-02-28T12:11:32;6.60;98.90
2124;DHT22;1068;52.460;13.528;2023-02-28T12:14:16;6.60;98.80
2124;DHT22;1068;52.460;13.528;2023-02-28T12:16:49;6.70;99.90
2124;DHT22;1068;52.460;13.528;2023-02-28T12:19:21;6.90;99.00
2124;DHT22;1068;52.460;13.528;2023-02-28T12:22:14;6.90;98.90
2124;DHT22;1068;52.460;13.528;2023-02-28T12:25:06;6.70;99.10
2124;DHT22;1068;52.460;13.528;2023-02-28T12:27:42;6.70;99.40
2124;DHT22;1068;52.460;13.528;2023-02-28T12:30:17;6.70;99.00
2124;DHT22;1068;52.460;13.528;2023-02-28T12:32:47;6.80;99.60
2124;DHT22;1068;52.460;13.528;2023-02-28T12:35:19;6.90;99.30
2124;DHT22;1068;52.460;13.528;2023-02-28T12:37:51;6.90;98.20
2124;DHT22;1068;52.460;13.528;2023-02-28T12:40:21;6.90;98.60
2124;DHT22;1068;52.460;13.528;2023-02-28T12:42:50;7.00;97.70
2124;DHT22;1068;52.460;13.528;2023-02-28T12:45:21;7.10;97.60
2124;DHT22;1068;52.460;13.528;2023-02-28T12:47:52;6.90;97.70
2124;DHT22;1068;52.460;13.528;2023-02-28T12:50:19;6.90;97.50
2124;DHT22;1068;52.460;13.528;2023-02-28T12:52:53;6.80;97.40
2124;DHT22;1068;52.460;13.528;2023-02-28T12:55:29;6.90;97.70
2124;DHT22;1068;52.460;13.528;2023-02-28T12:58:01;6.90;97.30
2124;DHT22;1068;52.460;13.528;2023-02-28T13:00:35;6.60;97.50
2124;DHT22;1068;52.460;13.528;2023-02-28T13:03:32;6.60;97.90
2124;DHT22;1068;52.460;13.528;2023-02-28T13:06:20;6.70;97.70
2124;DHT22;1068;52.460;13.528;2023-02-28T13:09:02;6.80;97.60
2124;DHT22;1068;52.460;13.528;2023-02-28T13:11:32;6.90;97.40
2124;DHT22;1068;52.460;13.528;2023-02-28T13:14:03;7.00;98.60
2124;DHT22;1068;52.460;13.528;2023-02-28T13:16:50;7.20;97.70
2124;DHT22;1068;52.460;13.528;2023-02-28T13:19:19;7.30;97.60
2124;DHT22;1068;52.460;13.528;2023-02-28T13:21:47;7.30;97.40
2124;DHT22;1068;52.460;13.528;2023-02-28T13:24:38;7.20;96.80
2124;DHT22;1068;52.460;13.528;2023-02-28T13:27:25;7.20;97.00
2124;DHT22;1068;52.460;13.528;2023-02-28T13:29:57;7.20;95.80
2124;DHT22;1068;52.460;13.528;2023-02-28T13:32:34;6.90;96.00
2124;DHT22;1068;52.460;13.528;2023-02-28T13:35:34;7.10;97.00
2124;DHT22;1068;52.460;13.528;2023-02-28T13:38:34;7.30;97.90
2124;DHT22;1068;52.460;13.528;2023-02-28T13:44:06;7.30;96.60
2124;DHT22;1068;52.460;13.528;2023-02-28T13:46:35;7.20;96.70
2124;DHT22;1068;52.460;13.528;2023-02-28T13:49:25;7.20;97.20
2124;DHT22;1068;52.460;13.528;2023-02-28T13:51:56;7.10;96.80
2124;DHT22;1068;52.460;13.528;2023-02-28T13:54:36;7.30;96.90
2124;DHT22;1068;52.460;13.528;2023-02-28T13:57:20;7.40;96.40
2124;DHT22;1068;52.460;13.528;2023-02-28T13:59:58;7.30;96.60
2124;DHT22;1068;52.460;13.528;2023-02-28T14:02:45;7.20;96.40
2124;DHT22;1068;52.460;13.528;2023-02-28T14:05:16;7.30;95.80
2124;DHT22;1068;52.460;13.528;2023-02-28T14:07:47;7.30;96.50
2124;DHT22;1068;52.460;13.528;2023-02-28T14:10:25;7.40;95.80
2124;DHT22;1068;52.460;13.528;2023-02-28T14:13:01;7.50;95.20
2124;DHT22;1068;52.460;13.528;2023-02-28T14:15:47;7.70;94.90
2124;DHT22;1068;52.460;13.528;2023-02-28T14:18:22;7.70;95.00
2124;DHT22;1068;52.460;13.528;2023-02-28T14:20:55;7.60;94.90
2124;DHT22;1068;52.460;13.528;2023-02-28T14:23:35;7.40;94.80
2124;DHT22;1068;52.460;13.528;2023-02-28T14:26:16;7.40;95.50
2124;DHT22;1068;52.460;13.528;2023-02-28T14:28:55;7.20;95.60
2124;DHT22;1068;52.460;13.528;2023-02-28T14:31:32;7.20;95.60
2124;DHT22;1068;52.460;13.528;2023-02-28T14:34:13;7.30;96.10
2124;DHT22;1068;52.460;13.528;2023-02-28T14:36:45;7.40;96.10
2124;DHT22;1068;52.460;13.528;2023-02-28T14:39:13;7.40;95.80
2124;DHT22;1068;52.460;13.528;2023-02-28T14:41:42;7.40;95.50
2124;DHT22;1068;52.460;13.528;2023-02-28T14:44:17;7.30;95.70
2124;DHT22;1068;52.460;13.528;2023-02-28T14:46:45;7.10;95.50
2124;DHT22;1068;52.460;13.528;2023-02-28T14:49:24;7.10;95.80
2124;DHT22;1068;52.460;13.528;2023-02-28T14:52:05;7.00;95.90
2124;DHT22;1068;52.460;13.528;2023-02-28T14:54:34;7.10;96.00
2124;DHT22;1068;52.460;13.528;2023-02-28T14:57:01;7.10;95.50
2124;DHT22;1068;52.460;13.528;2023-02-28T14:59:30;7.10;95.80
2124;DHT22;1068;52.460;13.528;2023-02-28T15:02:20;7.00;95.90
2124;DHT22;1068;52.460;13.528;2023-02-28T15:04:55;7.00;95.70
2124;DHT22;1068;52.460;13.528;2023-02-28T15:07:24;6.90;95.70
2124;DHT22;1068;52.460;13.528;2023-02-28T15:10:08;6.80;95.80
2124;DHT22;1068;52.460;13.528;2023-02-28T15:12:35;6.70;96.00
2124;DHT22;1068;52.460;13.528;2023-02-28T15:15:03;6.70;96.20
2124;DHT22;1068;52.460;13.528;2023-02-28T15:17:30;6.60;96.50
2124;DHT22;1068;52.460;13.528;2023-02-28T15:19:57;6.60;96.30
2124;DHT22;1068;52.460;13.528;2023-02-28T15:22:28;6.50;96.10
2124;DHT22;1068;52.460;13.528;2023-02-28T15:24:56;6.60;96.00
2124;DHT22;1068;52.460;13.528;2023-02-28T15:27:26;6.60;96.20
2124;DHT22;1068;52.460;13.528;2023-02-28T15:29:55;6.40;96.30
2124;DHT22;1068;52.460;13.528;2023-02-28T15:32:29;6.40;97.00
2124;DHT22;1068;52.460;13.528;2023-02-28T15:34:57;6.40;96.80
2124;DHT22;1068;52.460;13.528;2023-02-28T15:37:29;6.40;96.90
2124;DHT22;1068;52.460;13.528;2023-02-28T15:39:58;6.30;97.30
2124;DHT22;1068;52.460;13.528;2023-02-28T15:42:28;6.30;97.50
2124;DHT22;1068;52.460;13.528;2023-02-28T15:44:56;6.30;97.20
2124;DHT22;1068;52.460;13.528;2023-02-28T15:47:27;6.20;97.20
2124;DHT22;1068;52.460;13.528;2023-02-28T15:49:56;6.10;97.50
2124;DHT22;1068;52.460;13.528;2023-02-28T15:52:29;6.10;97.90
2124;DHT22;1068;52.460;13.528;2023-02-28T15:55:08;6.10;98.30
2124;DHT22;1068;52.460;13.528;2023-02-28T15:57:39;6.00;98.70
2124;DHT22;1068;52.460;13.528;2023-02-28T16:00:11;6.00;98.30
2124;DHT22;1068;52.460;13.528;2023-02-28T16:02:39;5.90;99.00
2124;DHT22;1068;52.460;13.528;2023-02-28T16:05:24;5.90;99.10
2124;DHT22;1068;52.460;13.528;2023-02-28T16:07:58;5.90;99.10
2124;DHT22;1068;52.460;13.528;2023-02-28T16:10:26;5.80;99.60
2124;DHT22;1068;52.460;13.528;2023-02-28T16:12:54;5.90;99.60
2124;DHT22;1068;52.460;13.528;2023-02-28T16:15:23;5.80;99.60
2124;DHT22;1068;52.460;13.528;2023-02-28T16:17:50;5.80;99.50
2124;DHT22;1068;52.460;13.528;2023-02-28T16:20:19;5.70;99.70
2124;DHT22;1068;52.460;13.528;2023-02-28T16:22:46;5.70;99.90
2124;DHT22;1068;52.460;13.528;2023-02-28T16:25:15;5.70;99.90
2124;DHT22;1068;52.460;13.528;2023-02-28T16:27:43;5.60;99.90
2124;DHT22;1068;52.460;13.528;2023-02-28T16:30:19;5.60;99.90
2124;DHT22;1068;52.460;13.528;2023-02-28T16:32:46;5.60;99.90